createdAt,value
2019-04-21T00:00:32.483Z,44.61
2019-04-21T00:01:35.633Z,44.51
2019-04-21T00:02:35.770Z,44.63
2019-04-21T00:03:40.205Z,45.14
2019-04-21T00:04:48.341Z,45.34
2019-04-21T00:05:53.312Z,45.45
2019-04-21T00:06:56.877Z,45.67
2019-04-21T00:07:52.788Z,45.87
2019-04-21T00:08:57.955Z,45.87
2019-04-21T00:09:53.749Z,45.87
2019-04-21T00:11:01.130Z,45.89
2019-04-21T00:11:55.617Z,46.00
2019-04-21T00:12:48.941Z,46.20
2019-04-21T00:13:46.737Z,46.30
2019-04-21T00:14:43.833Z,46.30
2019-04-21T00:15:40.742Z,46.41
2019-04-21T00:16:43.196Z,46.30
2019-04-21T00:17:34.719Z,46.43
2019-04-21T00:18:41.800Z,46.53
2019-04-21T00:19:35.400Z,46.53
2019-04-21T00:20:40.860Z,46.53
2019-04-21T00:21:38.495Z,46.63
2019-04-21T00:22:44.346Z,47.14
2019-04-21T00:23:49.610Z,46.83
2019-04-21T00:24:46.218Z,46.94
2019-04-21T00:25:45.817Z,47.06
2019-04-21T00:26:49.313Z,47.37
2019-04-21T00:27:47.822Z,47.67
2019-04-21T00:28:59.406Z,47.78
2019-04-21T00:29:51.983Z,47.78
2019-04-21T00:30:50.550Z,47.90
2019-04-21T00:31:45.501Z,48.00
2019-04-21T00:32:45.063Z,48.00
2019-04-21T00:33:35.634Z,48.10
2019-04-21T00:34:32.208Z,48.00
2019-04-21T00:35:39.151Z,48.00
2019-04-21T00:36:42.757Z,48.13
2019-04-21T00:37:54.604Z,48.33
2019-04-21T00:39:07.055Z,48.54
2019-04-21T00:40:54.088Z,48.54
2019-04-21T00:41:56.337Z,48.64
2019-04-21T00:42:48.877Z,48.56
2019-04-21T00:43:44.731Z,48.05
2019-04-21T00:44:44.364Z,47.85
2019-04-21T00:45:44.659Z,47.85
2019-04-21T00:46:47.729Z,47.85
2019-04-21T00:47:53.142Z,48.05
2019-04-21T00:48:53.959Z,47.64
2019-04-21T00:49:56.666Z,47.85
2019-04-21T00:51:14.997Z,47.53
2019-04-21T00:52:07.048Z,47.61
2019-04-21T00:53:05.746Z,47.20
2019-04-21T00:54:00.980Z,47.61
2019-04-21T00:55:03.936Z,47.61
2019-04-21T00:55:59.416Z,47.61
2019-04-21T00:56:56.237Z,47.20
2019-04-21T00:57:59.510Z,47.20
2019-04-21T00:58:53.740Z,46.78
2019-04-21T00:59:55.763Z,46.88
2019-04-21T01:00:51.279Z,46.67
2019-04-21T01:01:55.467Z,46.57
2019-04-21T01:02:59.393Z,46.88
2019-04-21T01:03:57.915Z,46.67
2019-04-21T01:05:02.093Z,46.57
2019-04-21T01:06:11.443Z,46.78
2019-04-21T01:06:54.406Z,46.67
2019-04-21T01:07:50.375Z,46.98
2019-04-21T01:08:55.712Z,45.96
2019-04-21T01:09:45.276Z,46.67
2019-04-21T01:10:43.933Z,46.04
2019-04-21T01:11:55.376Z,46.14
2019-04-21T01:12:56.118Z,45.63
2019-04-21T01:13:59.577Z,45.22
2019-04-21T01:14:58.167Z,44.38
2019-04-21T01:15:53.034Z,44.79
2019-04-21T01:16:53.090Z,44.59
2019-04-21T01:17:52.146Z,43.88
2019-04-21T01:18:51.705Z,43.24
2019-04-21T01:19:46.633Z,42.12
2019-04-21T01:20:31.588Z,42.10
2019-04-21T01:21:30.526Z,42.21
2019-04-21T01:22:30.594Z,41.37
2019-04-21T01:23:31.728Z,41.06
2019-04-21T01:24:34.453Z,41.14
2019-04-21T01:25:38.258Z,41.05
2019-04-21T01:26:43.795Z,40.74
2019-04-21T01:27:52.230Z,40.62
2019-04-21T01:28:51.126Z,40.41
2019-04-21T01:29:58.346Z,40.21
2019-04-21T01:30:51.789Z,40.19
2019-04-21T01:31:48.475Z,39.89
2019-04-21T01:32:57.594Z,39.69
2019-04-21T01:33:52.134Z,39.69
2019-04-21T01:34:51.368Z,39.58
2019-04-21T01:35:47.994Z,39.69
2019-04-21T01:36:48.615Z,39.89
2019-04-21T01:38:12.135Z,40.19
2019-04-21T01:38:53.779Z,39.99
2019-04-21T01:39:54.522Z,39.78
2019-04-21T01:40:56.768Z,39.58
2019-04-21T01:41:52.324Z,39.69
2019-04-21T01:42:53.934Z,39.58
2019-04-21T01:43:50.288Z,39.69
2019-04-21T01:44:52.313Z,39.69
2019-04-21T01:45:48.663Z,39.99
2019-04-21T01:46:48.653Z,40.09
2019-04-21T01:47:48.958Z,40.09
2019-04-21T01:48:42.831Z,40.19
2019-04-21T01:49:43.014Z,40.30
2019-04-21T01:50:47.043Z,40.50
2019-04-21T01:52:03.255Z,40.80
2019-04-21T01:53:12.667Z,40.72
2019-04-21T01:54:01.317Z,40.82
2019-04-21T01:54:55.825Z,40.72
2019-04-21T01:55:54.220Z,40.72
2019-04-21T01:56:51.415Z,41.02
2019-04-21T01:57:49.426Z,40.92
2019-04-21T01:58:42.809Z,40.62
2019-04-21T01:59:42.564Z,40.52
2019-04-21T02:00:43.887Z,40.72
2019-04-21T02:01:56.363Z,40.62
2019-04-21T02:02:57.793Z,40.64
2019-04-21T02:03:56.845Z,40.74
2019-04-21T02:05:01.199Z,40.74
2019-04-21T02:06:00.025Z,41.05
2019-04-21T02:06:50.226Z,40.84
2019-04-21T02:07:50.127Z,40.94
2019-04-21T02:08:49.088Z,40.94
2019-04-21T02:09:50.923Z,40.84
2019-04-21T02:10:57.528Z,40.94
2019-04-21T02:11:55.084Z,41.35
2019-04-21T02:12:52.546Z,41.05
2019-04-21T02:13:57.695Z,40.94
2019-04-21T02:14:58.202Z,40.74
2019-04-21T02:15:55.816Z,40.84
2019-04-21T02:16:52.057Z,40.84
2019-04-21T02:17:53.790Z,40.84
2019-04-21T02:18:52.926Z,40.43
2019-04-21T02:19:48.056Z,40.64
2019-04-21T02:20:43.569Z,40.84
2019-04-21T02:21:43.654Z,40.74
2019-04-21T02:23:07.358Z,40.74
2019-04-21T02:24:58.388Z,40.84
2019-04-21T02:25:51.075Z,40.94
2019-04-21T02:26:54.294Z,40.64
2019-04-21T02:28:01.249Z,41.05
2019-04-21T02:28:55.583Z,40.94
2019-04-21T02:29:55.978Z,41.05
2019-04-21T02:31:05.336Z,40.94
2019-04-21T02:32:01.971Z,40.94
2019-04-21T02:34:00.281Z,40.76
2019-04-21T02:35:12.346Z,40.84
2019-04-21T02:36:15.402Z,40.86
2019-04-21T02:37:17.206Z,40.64
2019-04-21T02:39:12.298Z,40.64
2019-04-21T02:40:04.218Z,40.84
2019-04-21T02:44:59.896Z,40.94
2019-04-21T02:46:10.520Z,41.14
2019-04-21T02:48:03.976Z,40.96
2019-04-21T02:49:06.037Z,41.16
2019-04-21T02:50:22.333Z,40.96
2019-04-21T02:51:00.332Z,40.96
2019-04-21T02:52:01.227Z,41.16
2019-04-21T02:53:09.555Z,40.96
2019-04-21T02:54:38.486Z,41.27
2019-04-21T02:55:02.285Z,41.06
2019-04-21T02:56:00.665Z,41.37
2019-04-21T02:57:08.560Z,41.57
2019-04-21T02:59:02.425Z,41.47
2019-04-21T03:01:03.261Z,41.78
2019-04-21T03:02:03.587Z,42.18
2019-04-21T03:03:58.801Z,42.51
2019-04-21T03:05:01.790Z,42.61
2019-04-21T03:06:02.634Z,42.92
2019-04-21T03:07:11.430Z,43.23
2019-04-21T03:09:15.970Z,43.14
2019-04-21T03:10:04.834Z,43.44
2019-04-21T03:13:05.006Z,43.24
2019-04-21T03:14:05.544Z,43.75
2019-04-21T03:15:03.681Z,43.55
2019-04-21T03:16:13.711Z,43.75
2019-04-21T03:16:57.698Z,43.44
2019-04-21T03:18:06.523Z,43.67
2019-04-21T03:19:04.916Z,44.08
2019-04-21T03:21:09.331Z,43.47
2019-04-21T03:22:07.132Z,43.47
2019-04-21T03:23:15.790Z,43.37
2019-04-21T03:24:01.225Z,43.37
2019-04-21T03:25:23.462Z,43.88
2019-04-21T03:27:12.121Z,44.31
2019-04-21T03:29:03.630Z,44.41
2019-04-21T03:29:59.312Z,44.51
2019-04-21T03:31:19.699Z,44.31
2019-04-21T03:32:39.024Z,44.63
2019-04-21T03:33:45.452Z,44.63
2019-04-21T03:35:37.884Z,45.25
2019-04-21T03:38:59.150Z,45.55
2019-04-21T03:39:59.837Z,45.55
2019-04-21T03:40:57.342Z,45.67
2019-04-21T03:42:07.051Z,45.57
2019-04-21T03:43:14.489Z,45.47
2019-04-21T03:43:58.922Z,45.47
2019-04-21T03:45:03.724Z,45.47
2019-04-21T03:46:01.844Z,45.76
2019-04-21T03:48:05.110Z,45.65
2019-04-21T03:49:02.233Z,46.06
2019-04-21T03:50:05.035Z,46.16
2019-04-21T03:50:58.921Z,46.06
2019-04-21T03:52:03.208Z,45.86
2019-04-21T03:53:02.749Z,46.26
2019-04-21T03:54:00.677Z,46.29
2019-04-21T03:55:25.210Z,46.39
2019-04-21T03:57:11.267Z,46.59
2019-04-21T04:00:08.921Z,46.70
2019-04-21T04:03:28.222Z,47.33
2019-04-21T04:05:05.667Z,47.33
2019-04-21T04:05:08.961Z,47.94
2019-04-21T04:07:28.863Z,48.25
2019-04-21T04:08:28.683Z,47.94
2019-04-21T04:09:19.371Z,48.17
2019-04-21T04:11:19.637Z,48.68
2019-04-21T04:11:54.724Z,48.89
2019-04-21T04:13:00.817Z,48.99
2019-04-21T04:14:05.457Z,48.99
2019-04-21T04:17:07.535Z,49.11
2019-04-21T04:17:54.270Z,48.81
2019-04-21T04:18:57.994Z,49.11
2019-04-21T04:21:03.050Z,49.52
2019-04-21T04:22:04.338Z,49.32
2019-04-21T04:23:02.929Z,49.52
2019-04-21T04:24:04.027Z,49.52
2019-04-21T04:26:02.325Z,49.83
2019-04-21T04:28:09.920Z,49.93
2019-04-21T04:29:05.959Z,49.85
2019-04-21T04:29:59.054Z,50.14
2019-04-21T04:31:06.512Z,50.06
2019-04-21T04:31:56.940Z,50.06
2019-04-21T04:32:57.392Z,50.37
2019-04-21T04:35:03.869Z,50.67
2019-04-21T04:36:13.095Z,50.67
2019-04-21T04:37:06.914Z,50.67
2019-04-21T04:38:00.939Z,50.98
2019-04-21T04:39:14.465Z,50.88
2019-04-21T04:40:13.384Z,50.88
2019-04-21T04:41:06.219Z,50.67
2019-04-21T04:42:18.225Z,50.67
2019-04-21T04:43:08.325Z,50.37
2019-04-21T04:44:07.083Z,50.26
2019-04-21T04:45:58.976Z,50.78
2019-04-21T04:47:04.557Z,50.78
2019-04-21T04:47:59.896Z,50.67
2019-04-21T04:49:06.073Z,50.57
2019-04-21T04:49:51.954Z,50.47
2019-04-21T04:51:01.944Z,50.80
2019-04-21T04:52:51.253Z,51.21
2019-04-21T04:54:21.811Z,51.01
2019-04-21T04:57:08.498Z,51.39
2019-04-21T04:59:22.653Z,51.29
2019-04-21T05:01:08.213Z,51.39
2019-04-21T05:02:56.305Z,50.98
2019-04-21T05:05:07.064Z,51.39
2019-04-21T05:06:10.058Z,50.98
2019-04-21T05:06:58.443Z,51.29
2019-04-21T05:08:23.970Z,51.39
2019-04-21T05:11:07.690Z,51.78
2019-04-21T05:11:55.878Z,51.78
2019-04-21T05:12:58.650Z,51.78
2019-04-21T05:15:06.427Z,51.26
2019-04-21T05:16:03.528Z,51.26
2019-04-21T05:17:57.717Z,51.34
2019-04-21T05:19:10.152Z,51.45
2019-04-21T05:21:07.472Z,51.01
2019-04-21T05:21:58.793Z,51.12
2019-04-21T05:22:53.897Z,50.48
2019-04-21T05:23:48.494Z,49.84
2019-04-21T05:24:48.309Z,49.29
2019-04-21T05:25:41.632Z,48.02
2019-04-21T05:26:49.078Z,47.26
2019-04-21T05:27:43.320Z,46.20
2019-04-21T05:28:40.691Z,45.32
2019-04-21T05:29:55.535Z,44.36
2019-04-21T05:31:00.495Z,43.51
2019-04-21T05:31:58.447Z,42.23
2019-04-21T05:32:52.780Z,41.49
2019-04-21T05:33:54.305Z,40.64
2019-04-21T05:34:50.793Z,39.40
2019-04-21T05:35:50.699Z,37.75
2019-04-21T05:36:53.927Z,37.51
2019-04-21T05:37:47.612Z,36.79
2019-04-21T05:38:47.755Z,36.17
2019-04-21T05:39:45.163Z,35.55
2019-04-21T05:40:40.190Z,35.73
2019-04-21T05:41:41.013Z,35.11
2019-04-21T05:42:45.893Z,34.99
2019-04-21T05:43:54.579Z,35.18
2019-04-21T05:44:58.138Z,33.97
2019-04-21T05:45:56.748Z,33.17
2019-04-21T05:47:05.542Z,33.79
2019-04-21T05:47:57.897Z,33.99
2019-04-21T05:48:52.174Z,34.11
2019-04-21T05:49:51.285Z,33.94
2019-04-21T05:50:52.176Z,35.06
2019-04-21T05:51:44.280Z,35.50
2019-04-21T05:52:44.970Z,36.44
2019-04-21T05:53:49.233Z,37.38
2019-04-21T05:54:57.427Z,37.81
2019-04-21T05:55:56.922Z,37.54
2019-04-21T05:56:49.837Z,38.26
2019-04-21T05:57:48.120Z,38.28
2019-04-21T05:58:54.079Z,38.91
2019-04-21T05:59:51.595Z,39.53
2019-04-21T06:02:02.575Z,40.06
2019-04-21T06:02:55.225Z,39.87
2019-04-21T06:07:02.090Z,41.21
2019-04-21T06:07:48.212Z,41.11
2019-04-21T06:08:48.120Z,41.09
2019-04-21T06:09:55.418Z,40.77
2019-04-21T06:10:58.818Z,40.12
2019-04-21T06:11:51.601Z,38.97
2019-04-21T06:12:51.060Z,38.23
2019-04-21T06:13:55.525Z,36.96
2019-04-21T06:14:54.561Z,36.30
2019-04-21T06:15:57.956Z,35.38
2019-04-21T06:16:55.560Z,34.84
2019-04-21T06:17:49.271Z,34.20
2019-04-21T06:18:53.157Z,33.59
2019-04-21T06:19:56.937Z,33.27
2019-04-21T06:20:54.700Z,33.23
2019-04-21T06:21:50.842Z,32.72
2019-04-21T06:22:52.020Z,32.40
2019-04-21T06:23:49.715Z,32.09
2019-04-21T06:25:15.237Z,31.77
2019-04-21T06:26:18.036Z,31.65
2019-04-21T06:27:00.358Z,31.54
2019-04-21T06:27:52.192Z,31.02
2019-04-21T06:28:51.815Z,30.73
2019-04-21T06:29:52.812Z,30.41
2019-04-21T06:30:59.446Z,30.52
2019-04-21T06:32:17.341Z,30.71
2019-04-21T06:32:50.872Z,30.60
2019-04-21T06:34:04.930Z,30.29
2019-04-21T06:35:07.347Z,30.60
2019-04-21T06:36:11.412Z,30.18
2019-04-21T06:37:49.422Z,29.95
2019-04-21T06:39:00.035Z,30.15
2019-04-21T06:40:01.894Z,29.54
2019-04-21T06:40:55.995Z,29.24
2019-04-21T06:41:49.137Z,28.74
2019-04-21T06:43:07.932Z,28.54
2019-04-21T06:43:56.303Z,29.24
2019-04-21T06:46:12.324Z,28.03
2019-04-21T06:47:05.950Z,28.33
2019-04-21T06:47:50.168Z,28.41
2019-04-21T06:48:55.728Z,28.61
2019-04-21T06:49:50.970Z,28.31
2019-04-21T06:50:52.950Z,27.72
2019-04-21T06:51:48.352Z,27.92
2019-04-21T06:53:59.584Z,28.02
2019-04-21T06:54:56.032Z,28.30
2019-04-21T06:55:57.424Z,28.09
2019-04-21T06:57:04.873Z,27.69
2019-04-21T06:57:55.802Z,28.10
2019-04-21T06:58:51.564Z,28.11
2019-04-21T06:59:43.103Z,28.10
2019-04-21T07:00:47.668Z,27.89
2019-04-21T07:01:52.720Z,27.79
2019-04-21T07:02:52.831Z,27.99
2019-04-21T07:04:03.097Z,27.89
2019-04-21T07:06:00.400Z,27.78
2019-04-21T07:08:08.403Z,28.02
2019-04-21T07:09:52.879Z,28.53
2019-04-21T07:10:52.084Z,28.52
2019-04-21T07:11:52.647Z,28.11
2019-04-21T07:12:45.001Z,28.22
2019-04-21T07:13:44.589Z,28.41
2019-04-21T07:14:51.029Z,28.23
2019-04-21T07:15:50.139Z,28.33
2019-04-21T07:16:59.585Z,29.24
2019-04-21T07:17:49.987Z,29.72
2019-04-21T07:19:00.060Z,29.82
2019-04-21T07:20:07.409Z,29.33
2019-04-21T07:20:50.446Z,28.73
2019-04-21T07:21:54.336Z,28.66
2019-04-21T07:22:50.986Z,28.77
2019-04-21T07:23:53.822Z,29.30
2019-04-21T07:24:48.209Z,29.71
2019-04-21T07:25:51.969Z,30.21
2019-04-21T07:26:52.681Z,30.21
2019-04-21T07:27:52.045Z,29.93
2019-04-21T07:28:56.964Z,30.22
2019-04-21T07:29:56.660Z,30.21
2019-04-21T07:30:54.605Z,29.81
2019-04-21T07:32:00.284Z,30.19
2019-04-21T07:32:58.016Z,30.08
2019-04-21T07:34:51.173Z,29.17
2019-04-21T07:35:51.753Z,29.68
2019-04-21T07:37:52.300Z,30.21
2019-04-21T07:38:45.457Z,30.81
2019-04-21T07:39:45.181Z,31.31
2019-04-21T07:40:42.902Z,30.81
2019-04-21T07:41:46.932Z,30.81
2019-04-21T07:42:47.039Z,30.29
2019-04-21T07:43:47.280Z,30.48
2019-04-21T07:44:44.728Z,30.98
2019-04-21T07:45:40.562Z,30.58
2019-04-21T07:46:41.720Z,30.46
2019-04-21T07:47:53.467Z,30.27
2019-04-21T07:48:52.032Z,30.25
2019-04-21T07:49:53.168Z,29.75
2019-04-21T07:50:48.799Z,29.65
2019-04-21T07:51:50.997Z,29.64
2019-04-21T07:52:53.400Z,29.44
2019-04-21T07:53:55.973Z,30.04
2019-04-21T07:54:57.200Z,30.24
2019-04-21T07:56:33.204Z,29.47
2019-04-21T07:58:02.717Z,30.27
2019-04-21T07:58:54.199Z,29.88
2019-04-21T08:00:01.204Z,30.08
2019-04-21T08:00:51.170Z,30.58
2019-04-21T08:01:50.723Z,30.48
2019-04-21T08:02:52.386Z,31.38
2019-04-21T08:03:45.389Z,31.37
2019-04-21T08:05:07.659Z,31.65
2019-04-21T08:05:53.012Z,31.34
2019-04-21T08:06:49.429Z,31.24
2019-04-21T08:07:51.886Z,31.02
2019-04-21T08:08:51.072Z,31.30
2019-04-21T08:09:47.263Z,31.30
2019-04-21T08:10:47.142Z,31.29
2019-04-21T08:11:41.614Z,31.40
2019-04-21T08:12:43.205Z,31.30
2019-04-21T08:13:48.535Z,31.40
2019-04-21T08:14:55.863Z,31.29
2019-04-21T08:15:51.279Z,30.99
2019-04-21T08:16:52.450Z,29.90
2019-04-21T08:17:47.180Z,30.31
2019-04-21T08:18:47.432Z,30.31
2019-04-21T08:19:43.032Z,30.71
2019-04-21T08:20:41.910Z,30.91
2019-04-21T08:21:54.625Z,31.30
2019-04-21T08:24:00.205Z,31.10
2019-04-21T08:24:50.329Z,31.10
2019-04-21T08:25:56.235Z,31.49
2019-04-21T08:26:51.007Z,32.48
2019-04-21T08:27:55.467Z,32.47
2019-04-21T08:28:49.451Z,31.07
2019-04-21T08:29:46.230Z,31.76
2019-04-21T08:30:44.402Z,31.54
2019-04-21T08:34:54.881Z,31.24
2019-04-21T08:36:44.730Z,30.54
2019-04-21T08:37:42.967Z,30.25
2019-04-21T08:38:51.541Z,30.55
2019-04-21T08:39:58.098Z,30.76
2019-04-21T08:41:04.893Z,30.76
2019-04-21T08:41:44.040Z,30.46
2019-04-21T08:42:47.751Z,30.66
2019-04-21T08:43:44.676Z,30.96
2019-04-21T08:44:46.879Z,30.16
2019-04-21T08:45:48.223Z,30.15
2019-04-21T08:46:48.079Z,29.35
2019-04-21T08:47:45.763Z,29.57
2019-04-21T08:48:52.592Z,29.67
2019-04-21T08:49:48.049Z,29.57
2019-04-21T08:50:44.149Z,29.75
2019-04-21T08:51:50.475Z,30.35
2019-04-21T08:52:50.679Z,30.24
2019-04-21T08:53:53.558Z,30.54
2019-04-21T08:54:52.123Z,30.63
2019-04-21T08:55:49.313Z,30.24
2019-04-21T08:56:49.605Z,30.13
2019-04-21T08:57:52.667Z,29.54
2019-04-21T08:58:52.162Z,29.27
2019-04-21T09:00:51.420Z,30.66
2019-04-21T09:01:50.781Z,30.36
2019-04-21T09:02:48.655Z,30.45
2019-04-21T09:03:53.936Z,29.85
2019-04-21T09:04:50.715Z,30.13
2019-04-21T09:05:45.648Z,29.04
2019-04-21T09:07:49.308Z,29.93
2019-04-21T09:08:46.155Z,29.52
2019-04-21T09:09:47.506Z,29.43
2019-04-21T09:10:47.385Z,29.13
2019-04-21T09:11:49.886Z,29.72
2019-04-21T09:12:49.938Z,29.34
2019-04-21T09:13:44.582Z,30.24
2019-04-21T09:14:41.520Z,30.73
2019-04-21T09:15:41.903Z,30.13
2019-04-21T09:16:44.006Z,30.43
2019-04-21T09:17:37.743Z,30.22
2019-04-21T09:18:42.100Z,30.12
2019-04-21T09:19:51.461Z,29.91
2019-04-21T09:22:41.305Z,29.90
2019-04-21T09:23:45.232Z,29.30
2019-04-21T09:24:45.660Z,29.50
2019-04-21T09:25:46.465Z,29.69
2019-04-21T09:26:41.329Z,28.60
2019-04-21T09:27:41.950Z,29.21
2019-04-21T09:28:39.592Z,29.81
2019-04-21T09:29:36.079Z,30.80
2019-04-21T09:30:26.430Z,30.90
2019-04-21T09:31:30.957Z,30.69
2019-04-21T09:32:29.398Z,30.28
2019-04-21T09:33:34.564Z,29.58
2019-04-21T09:34:33.192Z,28.99
2019-04-21T09:35:27.073Z,28.79
2019-04-21T09:36:33.640Z,28.49
2019-04-21T09:37:39.300Z,28.91
2019-04-21T09:38:33.838Z,29.94
2019-04-21T09:39:29.501Z,30.91
2019-04-21T09:40:32.724Z,29.41
2019-04-21T09:41:27.871Z,29.61
2019-04-21T09:42:32.324Z,29.60
2019-04-21T09:43:35.693Z,28.99
2019-04-21T09:44:31.451Z,29.78
2019-04-21T09:45:26.544Z,28.67
2019-04-21T09:46:25.422Z,28.77
2019-04-21T09:47:35.140Z,28.97
2019-04-21T09:48:26.728Z,29.36
2019-04-21T09:49:27.899Z,29.25
2019-04-21T09:50:26.579Z,28.17
2019-04-21T09:51:25.869Z,28.86
2019-04-21T09:52:30.137Z,28.35
2019-04-21T09:53:32.823Z,28.63
2019-04-21T09:54:31.141Z,29.33
2019-04-21T09:56:45.652Z,29.51
2019-04-21T09:57:43.115Z,28.32
2019-04-21T09:58:40.839Z,28.81
2019-04-21T09:59:40.105Z,29.02
2019-04-21T10:00:45.740Z,28.04
2019-04-21T10:01:49.069Z,29.34
2019-04-21T10:02:42.912Z,29.83
2019-04-21T10:03:41.226Z,29.54
2019-04-21T10:04:35.794Z,29.43
2019-04-21T10:05:36.012Z,29.63
2019-04-21T10:06:35.028Z,28.34
2019-04-21T10:07:39.122Z,28.63
2019-04-21T10:08:36.402Z,28.34
2019-04-21T10:09:35.565Z,28.55
2019-04-21T10:10:34.731Z,28.64
2019-04-21T10:11:35.529Z,29.04
2019-04-21T10:12:35.083Z,28.85
2019-04-21T10:13:36.086Z,28.14
2019-04-21T10:14:34.694Z,27.94
2019-04-21T10:15:35.518Z,27.94
2019-04-21T10:16:34.663Z,28.32
2019-04-21T10:17:35.033Z,28.12
2019-04-21T10:18:35.760Z,28.32
2019-04-21T10:19:34.646Z,28.92
2019-04-21T10:20:34.625Z,28.81
2019-04-21T10:21:35.977Z,28.80
2019-04-21T10:22:35.080Z,28.70
2019-04-21T10:23:35.794Z,28.11
2019-04-21T10:24:34.591Z,28.11
2019-04-21T10:25:34.625Z,27.83
2019-04-21T10:26:35.581Z,28.42
2019-04-21T10:27:34.915Z,28.22
2019-04-21T10:28:35.116Z,28.62
2019-04-21T10:29:35.808Z,29.00
2019-04-21T10:30:36.405Z,28.61
2019-04-21T10:31:34.680Z,28.21
2019-04-21T10:32:34.590Z,28.62
2019-04-21T10:33:34.592Z,28.12
2019-04-21T10:34:34.846Z,28.92
2019-04-21T10:35:35.259Z,29.21
2019-04-21T10:36:35.107Z,28.81
2019-04-21T10:37:45.537Z,29.21
2019-04-21T10:38:40.795Z,29.61
2019-04-21T10:39:35.719Z,29.81
2019-04-21T10:40:37.149Z,29.90
2019-04-21T10:41:35.123Z,28.90
2019-04-21T10:42:35.459Z,27.90
2019-04-21T10:43:35.605Z,28.39
2019-04-21T10:44:34.720Z,28.09
2019-04-21T10:45:34.905Z,28.30
2019-04-21T10:46:35.023Z,28.39
2019-04-21T10:47:34.642Z,27.80
2019-04-21T10:48:35.994Z,28.09
2019-04-21T10:49:34.936Z,28.00
2019-04-21T10:50:34.830Z,27.63
2019-04-21T10:51:35.173Z,28.35
2019-04-21T10:52:35.878Z,28.66
2019-04-21T10:53:34.543Z,28.88
2019-04-21T10:54:49.387Z,29.17
2019-04-21T10:55:50.551Z,28.58
2019-04-21T10:56:41.125Z,29.25
2019-04-21T10:57:35.288Z,28.35
2019-04-21T10:58:34.270Z,28.83
2019-04-21T10:59:35.319Z,28.72
2019-04-21T11:00:34.462Z,28.42
2019-04-21T11:01:34.733Z,28.61
2019-04-21T11:02:34.862Z,27.80
2019-04-21T11:03:35.257Z,28.09
2019-04-21T11:04:37.385Z,27.00
2019-04-21T11:05:34.522Z,27.49
2019-04-21T11:06:34.738Z,27.09
2019-04-21T11:07:45.409Z,27.49
2019-04-21T11:08:39.606Z,27.48
2019-04-21T11:09:36.126Z,26.78
2019-04-21T11:10:34.134Z,26.40
2019-04-21T11:11:34.238Z,27.11
2019-04-21T11:12:36.498Z,26.80
2019-04-21T11:13:34.756Z,26.70
2019-04-21T11:14:35.488Z,26.20
2019-04-21T11:15:35.043Z,26.40
2019-04-21T11:16:35.175Z,26.01
2019-04-21T11:17:34.234Z,25.42
2019-04-21T11:18:34.095Z,26.34
2019-04-21T11:19:34.877Z,26.15
2019-04-21T11:20:35.121Z,27.25
2019-04-21T11:21:34.644Z,27.14
2019-04-21T11:22:35.272Z,27.42
2019-04-21T11:23:35.224Z,27.11
2019-04-21T11:24:35.093Z,26.40
2019-04-21T11:25:33.985Z,25.12
2019-04-21T11:26:33.968Z,25.03
2019-04-21T11:27:35.115Z,26.03
2019-04-21T11:28:34.610Z,27.11
2019-04-21T11:29:35.057Z,25.33
2019-04-21T11:30:33.930Z,26.01
2019-04-21T11:31:33.982Z,25.99
2019-04-21T11:32:35.060Z,25.10
2019-04-21T11:33:35.469Z,25.31
2019-04-21T11:34:33.893Z,25.32
2019-04-21T11:35:35.145Z,25.82
2019-04-21T11:36:35.020Z,26.02
2019-04-21T11:37:34.613Z,25.52
2019-04-21T11:38:51.336Z,25.91
2019-04-21T11:39:44.603Z,25.23
2019-04-21T11:40:36.027Z,25.92
2019-04-21T11:41:34.120Z,25.93
2019-04-21T11:42:33.804Z,25.63
2019-04-21T11:43:34.979Z,25.24
2019-04-21T11:44:35.201Z,25.93
2019-04-21T11:45:34.711Z,26.12
2019-04-21T11:46:34.248Z,26.21
2019-04-21T11:47:34.245Z,26.42
2019-04-21T11:48:34.518Z,26.10
2019-04-21T11:49:34.849Z,25.61
2019-04-21T11:50:34.990Z,25.51
2019-04-21T11:51:33.717Z,26.50
2019-04-21T11:52:34.723Z,26.49
2019-04-21T11:53:34.837Z,26.28
2019-04-21T11:54:34.963Z,25.59
2019-04-21T11:55:38.259Z,25.98
2019-04-21T11:56:34.841Z,25.87
2019-04-21T11:57:39.241Z,25.08
2019-04-21T11:58:35.969Z,24.87
2019-04-21T11:59:33.653Z,24.49
2019-04-21T12:00:33.654Z,24.68
2019-04-21T12:01:33.825Z,24.19
2019-04-21T12:02:33.699Z,24.19
2019-04-21T12:03:33.719Z,24.98
2019-04-21T12:04:33.717Z,24.79
2019-04-21T12:05:33.580Z,24.98
2019-04-21T12:06:39.608Z,25.18
2019-04-21T12:07:35.359Z,24.79
2019-04-21T12:08:40.393Z,24.09
2019-04-21T12:09:35.417Z,23.99
2019-04-21T12:10:33.532Z,24.50
2019-04-21T12:11:33.717Z,25.39
2019-04-21T12:12:33.504Z,24.60
2019-04-21T12:13:34.231Z,24.39
2019-04-21T12:14:34.203Z,24.60
2019-04-21T12:15:34.580Z,24.30
2019-04-21T12:16:34.984Z,24.61
2019-04-21T12:17:34.139Z,24.21
2019-04-21T12:18:34.008Z,24.22
2019-04-21T12:19:34.613Z,25.02
2019-04-21T12:20:33.493Z,25.61
2019-04-21T12:21:47.904Z,25.10
2019-04-21T12:22:35.736Z,24.20
2019-04-21T12:23:34.375Z,24.60
2019-04-21T12:24:34.607Z,24.50
2019-04-21T12:25:33.384Z,24.20
2019-04-21T12:26:33.858Z,23.91
2019-04-21T12:27:33.969Z,23.44
2019-04-21T12:28:34.252Z,23.46
2019-04-21T12:29:33.587Z,24.27
2019-04-21T12:30:33.637Z,24.89
2019-04-21T12:31:33.744Z,25.10
2019-04-21T12:32:33.833Z,25.42
2019-04-21T12:33:34.134Z,25.71
2019-04-21T12:34:34.273Z,25.80
2019-04-21T12:35:33.571Z,25.79
2019-04-21T12:36:33.843Z,25.27
2019-04-21T12:37:33.262Z,25.76
2019-04-21T12:38:42.666Z,26.34
2019-04-21T12:39:34.776Z,24.84
2019-04-21T12:40:34.593Z,23.75
2019-04-21T12:41:33.223Z,23.46
2019-04-21T12:42:34.462Z,23.36
2019-04-21T12:43:33.192Z,23.37
2019-04-21T12:44:33.596Z,24.67
2019-04-21T12:45:33.699Z,24.47
2019-04-21T12:46:33.958Z,24.77
2019-04-21T12:47:34.100Z,25.79
2019-04-21T12:48:33.803Z,25.60
2019-04-21T12:49:33.845Z,25.90
2019-04-21T12:50:34.068Z,26.49
2019-04-21T12:51:33.730Z,25.68
2019-04-21T12:52:33.597Z,25.89
2019-04-21T12:53:34.027Z,25.97
2019-04-21T12:54:33.381Z,25.66
2019-04-21T12:55:38.396Z,25.74
2019-04-21T12:56:34.056Z,25.85
2019-04-21T12:57:33.331Z,25.85
2019-04-21T12:58:33.218Z,25.15
2019-04-21T12:59:34.557Z,25.55
2019-04-21T13:00:33.361Z,25.46
2019-04-21T13:01:33.018Z,25.66
2019-04-21T13:02:33.821Z,26.45
2019-04-21T13:03:34.086Z,26.44
2019-04-21T13:04:33.555Z,26.84
2019-04-21T13:05:33.788Z,27.42
2019-04-21T13:06:33.872Z,26.21
2019-04-21T13:07:33.208Z,26.61
2019-04-21T13:08:45.551Z,25.62
2019-04-21T13:09:35.690Z,25.73
2019-04-21T13:10:33.966Z,26.64
2019-04-21T13:11:33.204Z,27.23
2019-04-21T13:12:33.259Z,27.63
2019-04-21T13:13:32.902Z,26.92
2019-04-21T13:14:33.737Z,27.11
2019-04-21T13:15:33.653Z,26.51
2019-04-21T13:16:41.164Z,26.71
2019-04-21T13:17:47.828Z,26.51
2019-04-21T13:18:33.259Z,25.92
2019-04-21T13:19:33.515Z,26.43
2019-04-21T13:20:33.982Z,26.25
2019-04-21T13:21:34.060Z,26.26
2019-04-21T13:22:34.141Z,26.85
2019-04-21T13:23:32.808Z,27.25
2019-04-21T13:24:33.680Z,27.25
2019-04-21T13:25:33.902Z,26.45
2019-04-21T13:26:42.755Z,26.35
2019-04-21T13:27:34.574Z,26.93
2019-04-21T13:28:32.821Z,27.14
2019-04-21T13:29:32.741Z,26.82
2019-04-21T13:30:32.738Z,26.53
2019-04-21T13:31:34.121Z,26.42
2019-04-21T13:32:33.166Z,25.62
2019-04-21T13:33:33.635Z,25.93
2019-04-21T13:34:33.760Z,26.04
2019-04-21T13:35:33.141Z,26.15
2019-04-21T13:36:33.772Z,26.45
2019-04-21T13:37:33.236Z,26.45
2019-04-21T13:38:38.784Z,26.06
2019-04-21T13:39:57.213Z,26.27
2019-04-21T13:40:51.772Z,27.56
2019-04-21T13:41:47.480Z,26.76
2019-04-21T13:42:39.896Z,26.35
2019-04-21T13:43:34.946Z,26.26
2019-04-21T13:44:33.057Z,26.04
2019-04-21T13:45:34.185Z,25.95
2019-04-21T13:46:32.676Z,26.73
2019-04-21T13:47:32.649Z,26.13
2019-04-21T13:48:32.797Z,25.84
2019-04-21T13:49:32.615Z,26.64
2019-04-21T13:50:33.250Z,26.62
2019-04-21T13:51:34.002Z,26.13
2019-04-21T13:52:33.203Z,25.63
2019-04-21T13:53:33.056Z,25.35
2019-04-21T13:54:33.677Z,26.04
2019-04-21T13:55:36.683Z,25.65
2019-04-21T13:56:32.528Z,25.66
2019-04-21T13:57:32.538Z,26.06
2019-04-21T13:58:32.711Z,26.45
2019-04-21T13:59:32.457Z,26.75
2019-04-21T14:00:33.470Z,26.26
2019-04-21T14:01:33.852Z,25.97
2019-04-21T14:02:32.409Z,26.56
2019-04-21T14:03:33.397Z,25.97
2019-04-21T14:04:33.639Z,25.49